sensor_id;sensor_type;location;lat;lon;timestamp;temperature;humidity
12887;DHT22;6511;49.746;6.094;2023-04-03T00:01:05;3.80;99.90
12887;DHT22;6511;49.746;6.094;2023-04-03T00:03:31;3.90;99.90
12887;DHT22;6511;49.746;6.094;2023-04-03T00:05:57;3.90;99.90
12887;DHT22;6511;49.746;6.094;2023-04-03T00:08:23;3.80;99.90
12887;DHT22;6511;49.746;6.094;2023-04-03T00:10:48;3.80;99.90
12887;DHT22;6511;49.746;6.094;2023-04-03T00:13:14;3.80;99.90
12887;DHT22;6511;49.746;6.094;2023-04-03T00:15:41;3.80;99.90
12887;DHT22;6511;49.746;6.094;2023-04-03T00:18:07;3.80;99.90
12887;DHT22;6511;49.746;6.094;2023-04-03T00:20:33;3.80;99.90
12887;DHT22;6511;49.746;6.094;2023-04-03T00:22:59;3.80;99.90
12887;DHT22;6511;49.746;6.094;2023-04-03T00:25:24;3.80;99.90
12887;DHT22;6511;49.746;6.094;2023-04-03T00:27:50;3.80;99.90
12887;DHT22;6511;49.746;6.094;2023-04-03T00:30:22;3.90;99.90
12887;DHT22;6511;49.746;6.094;2023-04-03T00:32:52;3.80;99.90
12887;DHT22;6511;49.746;6.094;2023-04-03T00:35:19;3.80;99.90
12887;DHT22;6511;49.746;6.094;2023-04-03T00:37:45;3.80;99.90
12887;DHT22;6511;49.746;6.094;2023-04-03T00:40:13;3.90;99.90
12887;DHT22;6511;49.746;6.094;2023-04-03T00:42:43;3.80;99.90
12887;DHT22;6511;49.746;6.094;2023-04-03T00:47:43;3.80;99.90
12887;DHT22;6511;49.746;6.094;2023-04-03T00:50:09;3.80;99.90
12887;DHT22;6511;49.746;6.094;2023-04-03T00:52:37;3.80;99.90
12887;DHT22;6511;49.746;6.094;2023-04-03T00:55:06;3.80;99.90
12887;DHT22;6511;49.746;6.094;2023-04-03T00:57:33;3.80;99.90
12887;DHT22;6511;49.746;6.094;2023-04-03T01:00:07;3.80;99.90
12887;DHT22;6511;49.746;6.094;2023-04-03T01:02:35;3.80;99.90
12887;DHT22;6511;49.746;6.094;2023-04-03T01:05:00;3.80;99.90
12887;DHT22;6511;49.746;6.094;2023-04-03T01:07:29;3.80;99.90
12887;DHT22;6511;49.746;6.094;2023-04-03T01:10:00;3.90;99.90
12887;DHT22;6511;49.746;6.094;2023-04-03T01:12:33;3.80;99.90
12887;DHT22;6511;49.746;6.094;2023-04-03T01:15:26;3.80;99.90
12887;DHT22;6511;49.746;6.094;2023-04-03T01:17:54;3.70;99.90
12887;DHT22;6511;49.746;6.094;2023-04-03T01:25:31;3.60;99.90
12887;DHT22;6511;49.746;6.094;2023-04-03T01:27:57;3.60;99.90
12887;DHT22;6511;49.746;6.094;2023-04-03T01:30:30;3.50;99.90
12887;DHT22;6511;49.746;6.094;2023-04-03T01:32:56;3.60;99.90
12887;DHT22;6511;49.746;6.094;2023-04-03T01:35:22;3.50;99.90
12887;DHT22;6511;49.746;6.094;2023-04-03T01:37:48;3.50;99.90
12887;DHT22;6511;49.746;6.094;2023-04-03T01:40:13;3.40;99.90
12887;DHT22;6511;49.746;6.094;2023-04-03T01:42:39;3.40;99.90
12887;DHT22;6511;49.746;6.094;2023-04-03T01:45:05;3.30;99.90
12887;DHT22;6511;49.746;6.094;2023-04-03T01:47:31;3.20;99.90
12887;DHT22;6511;49.746;6.094;2023-04-03T01:49:56;3.20;99.90
12887;DHT22;6511;49.746;6.094;2023-04-03T01:52:22;3.20;99.90
12887;DHT22;6511;49.746;6.094;2023-04-03T01:54:47;3.10;99.90
12887;DHT22;6511;49.746;6.094;2023-04-03T01:57:13;3.10;99.90
12887;DHT22;6511;49.746;6.094;2023-04-03T01:59:40;3.00;99.90
12887;DHT22;6511;49.746;6.094;2023-04-03T02:02:06;3.00;99.90
12887;DHT22;6511;49.746;6.094;2023-04-03T02:04:32;2.90;99.90
12887;DHT22;6511;49.746;6.094;2023-04-03T02:06:57;2.80;99.90
12887;DHT22;6511;49.746;6.094;2023-04-03T02:09:23;2.80;99.90
12887;DHT22;6511;49.746;6.094;2023-04-03T02:11:49;2.80;99.90
12887;DHT22;6511;49.746;6.094;2023-04-03T02:14:15;2.80;99.90
12887;DHT22;6511;49.746;6.094;2023-04-03T02:16:40;2.70;99.90
12887;DHT22;6511;49.746;6.094;2023-04-03T02:19:06;2.70;99.90
12887;DHT22;6511;49.746;6.094;2023-04-03T02:21:32;2.60;99.90
12887;DHT22;6511;49.746;6.094;2023-04-03T02:23:57;2.60;99.90
12887;DHT22;6511;49.746;6.094;2023-04-03T02:26:23;2.60;99.90
12887;DHT22;6511;49.746;6.094;2023-04-03T02:28:49;2.60;99.90
12887;DHT22;6511;49.746;6.094;2023-04-03T02:31:16;2.60;99.90
12887;DHT22;6511;49.746;6.094;2023-04-03T02:33:42;2.50;99.90
12887;DHT22;6511;49.746;6.094;2023-04-03T02:36:08;2.40;99.90
12887;DHT22;6511;49.746;6.094;2023-04-03T02:38:35;2.30;99.90
12887;DHT22;6511;49.746;6.094;2023-04-03T02:41:06;2.30;99.90
12887;DHT22;6511;49.746;6.094;2023-04-03T02:43:32;2.20;99.90
12887;DHT22;6511;49.746;6.094;2023-04-03T02:45:58;2.10;99.90
12887;DHT22;6511;49.746;6.094;2023-04-03T02:48:24;2.00;99.90
12887;DHT22;6511;49.746;6.094;2023-04-03T02:50:50;1.90;99.90
12887;DHT22;6511;49.746;6.094;2023-04-03T02:53:16;1.90;99.90
12887;DHT22;6511;49.746;6.094;2023-04-03T02:55:41;1.80;99.90
12887;DHT22;6511;49.746;6.094;2023-04-03T02:58:07;1.70;99.90
12887;DHT22;6511;49.746;6.094;2023-04-03T03:00:33;1.60;99.90
12887;DHT22;6511;49.746;6.094;2023-04-03T03:02:59;1.50;99.90
12887;DHT22;6511;49.746;6.094;2023-04-03T03:05:25;1.40;99.90
12887;DHT22;6511;49.746;6.094;2023-04-03T03:07:50;1.40;99.90
12887;DHT22;6511;49.746;6.094;2023-04-03T03:10:16;1.40;99.90
12887;DHT22;6511;49.746;6.094;2023-04-03T03:12:42;1.30;99.90
12887;DHT22;6511;49.746;6.094;2023-04-03T03:15:08;1.20;99.90
12887;DHT22;6511;49.746;6.094;2023-04-03T03:17:34;1.30;99.90
12887;DHT22;6511;49.746;6.094;2023-04-03T03:20:01;1.20;99.90
12887;DHT22;6511;49.746;6.094;2023-04-03T03:22:28;1.20;99.90
12887;DHT22;6511;49.746;6.094;2023-04-03T03:24:54;1.10;99.90
12887;DHT22;6511;49.746;6.094;2023-04-03T03:27:20;1.00;99.90
12887;DHT22;6511;49.746;6.094;2023-04-03T03:29:46;1.00;99.90
12887;DHT22;6511;49.746;6.094;2023-04-03T03:32:12;1.00;99.90
12887;DHT22;6511;49.746;6.094;2023-04-03T03:34:37;0.90;99.90
12887;DHT22;6511;49.746;6.094;2023-04-03T03:37:03;0.80;99.90
12887;DHT22;6511;49.746;6.094;2023-04-03T03:39:29;0.80;99.90
12887;DHT22;6511;49.746;6.094;2023-04-03T03:41:55;0.80;99.90
12887;DHT22;6511;49.746;6.094;2023-04-03T03:44:21;0.80;99.90
12887;DHT22;6511;49.746;6.094;2023-04-03T03:46:46;0.90;99.90
12887;DHT22;6511;49.746;6.094;2023-04-03T03:49:12;1.00;99.90
12887;DHT22;6511;49.746;6.094;2023-04-03T03:51:39;1.00;99.90
12887;DHT22;6511;49.746;6.094;2023-04-03T03:54:05;0.90;99.90
12887;DHT22;6511;49.746;6.094;2023-04-03T03:56:31;0.80;99.90
12887;DHT22;6511;49.746;6.094;2023-04-03T03:58:57;0.80;99.90
12887;DHT22;6511;49.746;6.094;2023-04-03T04:01:23;0.70;99.90
12887;DHT22;6511;49.746;6.094;2023-04-03T04:03:49;0.70;99.90
12887;DHT22;6511;49.746;6.094;2023-04-03T04:06:15;0.60;99.90
12887;DHT22;6511;49.746;6.094;2023-04-03T04:08:40;0.50;99.90
12887;DHT22;6511;49.746;6.094;2023-04-03T04:11:07;0.40;99.90
12887;DHT22;6511;49.746;6.094;2023-04-03T04:13:32;0.30;99.90
12887;DHT22;6511;49.746;6.094;2023-04-03T04:15:58;0.20;99.90
12887;DHT22;6511;49.746;6.094;2023-04-03T04:18:23;0.10;99.90
12887;DHT22;6511;49.746;6.094;2023-04-03T04:20:50;0.10;99.90
12887;DHT22;6511;49.746;6.094;2023-04-03T04:23:16;0.20;99.90
12887;DHT22;6511;49.746;6.094;2023-04-03T04:25:47;0.10;99.90
12887;DHT22;6511;49.746;6.094;2023-04-03T04:28:14;0.10;99.90
12887;DHT22;6511;49.746;6.094;2023-04-03T04:30:40;0.20;99.90
12887;DHT22;6511;49.746;6.094;2023-04-03T04:33:05;0.10;99.90
12887;DHT22;6511;49.746;6.094;2023-04-03T04:35:32;0.10;99.90
12887;DHT22;6511;49.746;6.094;2023-04-03T04:37:58;0.00;99.90
12887;DHT22;6511;49.746;6.094;2023-04-03T04:40:23;0.00;99.90
12887;DHT22;6511;49.746;6.094;2023-04-03T04:42:49;0.00;99.90
12887;DHT22;6511;49.746;6.094;2023-04-03T04:45:15;-0.10;99.90
12887;DHT22;6511;49.746;6.094;2023-04-03T04:47:41;0.00;99.90
12887;DHT22;6511;49.746;6.094;2023-04-03T04:50:07;-0.10;99.90
12887;DHT22;6511;49.746;6.094;2023-04-03T04:52:33;-0.10;99.90
12887;DHT22;6511;49.746;6.094;2023-04-03T04:54:59;-0.20;99.90
12887;DHT22;6511;49.746;6.094;2023-04-03T04:57:25;-0.20;99.90
12887;DHT22;6511;49.746;6.094;2023-04-03T04:59:51;-0.20;99.90
12887;DHT22;6511;49.746;6.094;2023-04-03T05:02:16;-0.20;99.90
12887;DHT22;6511;49.746;6.094;2023-04-03T05:04:42;-0.10;99.90
12887;DHT22;6511;49.746;6.094;2023-04-03T05:07:07;-0.10;99.90
12887;DHT22;6511;49.746;6.094;2023-04-03T05:09:33;-0.10;99.90
12887;DHT22;6511;49.746;6.094;2023-04-03T05:12:00;-0.10;99.90
12887;DHT22;6511;49.746;6.094;2023-04-03T05:14:25;-0.10;99.90
12887;DHT22;6511;49.746;6.094;2023-04-03T05:16:51;-0.10;99.90
12887;DHT22;6511;49.746;6.094;2023-04-03T05:19:20;-0.10;99.90
12887;DHT22;6511;49.746;6.094;2023-04-03T05:21:47;-0.10;99.90
12887;DHT22;6511;49.746;6.094;2023-04-03T05:24:13;0.00;99.90
12887;DHT22;6511;49.746;6.094;2023-04-03T05:26:39;0.00;99.90
12887;DHT22;6511;49.746;6.094;2023-04-03T05:29:05;-0.10;99.90
12887;DHT22;6511;49.746;6.094;2023-04-03T05:31:31;-0.20;99.90
12887;DHT22;6511;49.746;6.094;2023-04-03T05:33:57;-0.10;99.90
12887;DHT22;6511;49.746;6.094;2023-04-03T05:36:22;-0.10;99.90
12887;DHT22;6511;49.746;6.094;2023-04-03T05:38:48;-0.10;99.90
12887;DHT22;6511;49.746;6.094;2023-04-03T05:41:15;-0.10;99.90
12887;DHT22;6511;49.746;6.094;2023-04-03T05:43:41;0.00;99.90
12887;DHT22;6511;49.746;6.094;2023-04-03T05:46:15;0.00;99.90
12887;DHT22;6511;49.746;6.094;2023-04-03T05:48:42;0.20;99.90
12887;DHT22;6511;49.746;6.094;2023-04-03T05:51:14;0.30;99.90
12887;DHT22;6511;49.746;6.094;2023-04-03T05:53:41;0.30;99.90
12887;DHT22;6511;49.746;6.094;2023-04-03T05:56:06;0.30;99.90
12887;DHT22;6511;49.746;6.094;2023-04-03T05:58:32;0.40;99.90
12887;DHT22;6511;49.746;6.094;2023-04-03T06:00:58;0.40;99.90
12887;DHT22;6511;49.746;6.094;2023-04-03T06:03:23;0.40;99.90
12887;DHT22;6511;49.746;6.094;2023-04-03T06:05:49;0.50;99.90
12887;DHT22;6511;49.746;6.094;2023-04-03T06:08:15;0.50;99.90
12887;DHT22;6511;49.746;6.094;2023-04-03T06:10:41;0.50;99.90
12887;DHT22;6511;49.746;6.094;2023-04-03T06:13:06;0.60;99.90
12887;DHT22;6511;49.746;6.094;2023-04-03T06:15:32;0.60;99.90
12887;DHT22;6511;49.746;6.094;2023-04-03T06:17:59;0.70;99.90
12887;DHT22;6511;49.746;6.094;2023-04-03T06:20:25;0.80;99.90
12887;DHT22;6511;49.746;6.094;2023-04-03T06:22:51;0.80;99.90
12887;DHT22;6511;49.746;6.094;2023-04-03T06:25:16;0.80;99.90
12887;DHT22;6511;49.746;6.094;2023-04-03T06:27:44;0.80;99.90
12887;DHT22;6511;49.746;6.094;2023-04-03T06:30:10;0.90;99.90
12887;DHT22;6511;49.746;6.094;2023-04-03T06:32:37;1.00;99.90
12887;DHT22;6511;49.746;6.094;2023-04-03T06:35:03;1.10;99.90
12887;DHT22;6511;49.746;6.094;2023-04-03T06:37:30;1.10;99.90
12887;DHT22;6511;49.746;6.094;2023-04-03T06:39:55;1.20;99.90
12887;DHT22;6511;49.746;6.094;2023-04-03T06:42:22;1.30;99.90
12887;DHT22;6511;49.746;6.094;2023-04-03T06:44:48;1.30;99.90
12887;DHT22;6511;49.746;6.094;2023-04-03T06:47:15;1.40;99.90
12887;DHT22;6511;49.746;6.094;2023-04-03T06:49:41;1.50;99.90
12887;DHT22;6511;49.746;6.094;2023-04-03T06:52:07;1.50;99.90
12887;DHT22;6511;49.746;6.094;2023-04-03T06:54:33;1.60;99.90
12887;DHT22;6511;49.746;6.094;2023-04-03T06:56:59;1.70;99.90
12887;DHT22;6511;49.746;6.094;2023-04-03T06:59:25;1.80;99.90
12887;DHT22;6511;49.746;6.094;2023-04-03T07:01:51;1.90;99.90
12887;DHT22;6511;49.746;6.094;2023-04-03T07:04:17;2.00;99.90
12887;DHT22;6511;49.746;6.094;2023-04-03T07:06:44;2.10;99.90
12887;DHT22;6511;49.746;6.094;2023-04-03T07:09:10;2.20;99.90
12887;DHT22;6511;49.746;6.094;2023-04-03T07:11:36;2.20;99.90
12887;DHT22;6511;49.746;6.094;2023-04-03T07:14:02;2.40;99.90
12887;DHT22;6511;49.746;6.094;2023-04-03T07:16:28;2.50;99.90
12887;DHT22;6511;49.746;6.094;2023-04-03T07:18:56;2.50;99.90
12887;DHT22;6511;49.746;6.094;2023-04-03T07:21:22;2.70;99.90
12887;DHT22;6511;49.746;6.094;2023-04-03T07:23:48;2.70;99.90
12887;DHT22;6511;49.746;6.094;2023-04-03T07:26:14;2.80;99.90
12887;DHT22;6511;49.746;6.094;2023-04-03T07:28:39;2.90;99.90
12887;DHT22;6511;49.746;6.094;2023-04-03T07:31:09;3.10;99.90
12887;DHT22;6511;49.746;6.094;2023-04-03T07:33:37;3.20;99.90
12887;DHT22;6511;49.746;6.094;2023-04-03T07:36:04;3.40;99.90
12887;DHT22;6511;49.746;6.094;2023-04-03T07:38:30;3.60;99.90
12887;DHT22;6511;49.746;6.094;2023-04-03T07:40:55;3.60;99.90
12887;DHT22;6511;49.746;6.094;2023-04-03T07:43:22;3.70;99.90
12887;DHT22;6511;49.746;6.094;2023-04-03T07:45:48;3.70;99.90
12887;DHT22;6511;49.746;6.094;2023-04-03T07:48:17;3.80;99.90
12887;DHT22;6511;49.746;6.094;2023-04-03T07:50:44;3.90;99.90
12887;DHT22;6511;49.746;6.094;2023-04-03T07:53:09;3.90;99.90
12887;DHT22;6511;49.746;6.094;2023-04-03T07:55:36;3.90;99.90
12887;DHT22;6511;49.746;6.094;2023-04-03T07:58:16;4.00;99.90
12887;DHT22;6511;49.746;6.094;2023-04-03T08:00:42;4.10;99.90
12887;DHT22;6511;49.746;6.094;2023-04-03T08:03:10;4.20;99.90
12887;DHT22;6511;49.746;6.094;2023-04-03T08:05:37;4.30;99.90
12887;DHT22;6511;49.746;6.094;2023-04-03T08:08:05;4.40;99.90
12887;DHT22;6511;49.746;6.094;2023-04-03T08:10:31;4.30;99.90
12887;DHT22;6511;49.746;6.094;2023-04-03T08:12:57;4.30;99.90
12887;DHT22;6511;49.746;6.094;2023-04-03T08:15:22;4.40;99.90
12887;DHT22;6511;49.746;6.094;2023-04-03T08:17:48;4.40;99.90
12887;DHT22;6511;49.746;6.094;2023-04-03T08:20:14;4.40;99.90
12887;DHT22;6511;49.746;6.094;2023-04-03T08:22:40;4.60;99.90
12887;DHT22;6511;49.746;6.094;2023-04-03T08:25:06;4.70;99.90
12887;DHT22;6511;49.746;6.094;2023-04-03T08:27:32;4.80;99.90
12887;DHT22;6511;49.746;6.094;2023-04-03T08:29:57;4.70;99.90
12887;DHT22;6511;49.746;6.094;2023-04-03T08:32:23;4.70;99.90
12887;DHT22;6511;49.746;6.094;2023-04-03T08:34:49;4.80;99.90
12887;DHT22;6511;49.746;6.094;2023-04-03T08:37:15;4.80;99.90
12887;DHT22;6511;49.746;6.094;2023-04-03T08:39:42;4.90;99.90
12887;DHT22;6511;49.746;6.094;2023-04-03T08:43:03;5.00;99.90
12887;DHT22;6511;49.746;6.094;2023-04-03T08:48:03;5.00;99.90
12887;DHT22;6511;49.746;6.094;2023-04-03T08:50:42;5.20;99.90
12887;DHT22;6511;49.746;6.094;2023-04-03T08:53:20;5.00;99.90
12887;DHT22;6511;49.746;6.094;2023-04-03T08:55:51;5.00;99.90
12887;DHT22;6511;49.746;6.094;2023-04-03T08:58:27;5.10;99.90
12887;DHT22;6511;49.746;6.094;2023-04-03T09:01:00;5.30;99.90
12887;DHT22;6511;49.746;6.094;2023-04-03T09:03:30;5.20;99.90
12887;DHT22;6511;49.746;6.094;2023-04-03T09:08:28;5.10;99.90
12887;DHT22;6511;49.746;6.094;2023-04-03T09:16:25;5.00;99.90
12887;DHT22;6511;49.746;6.094;2023-04-03T09:19:02;5.20;99.90
12887;DHT22;6511;49.746;6.094;2023-04-03T09:21:36;5.10;99.90
12887;DHT22;6511;49.746;6.094;2023-04-03T09:24:04;5.10;99.90
12887;DHT22;6511;49.746;6.094;2023-04-03T09:29:08;5.20;99.90
12887;DHT22;6511;49.746;6.094;2023-04-03T09:31:39;5.20;99.90
12887;DHT22;6511;49.746;6.094;2023-04-03T09:36:50;5.30;99.90
12887;DHT22;6511;49.746;6.094;2023-04-03T09:39:22;5.40;99.90
12887;DHT22;6511;49.746;6.094;2023-04-03T09:44:33;5.90;99.90
12887;DHT22;6511;49.746;6.094;2023-04-03T09:47:00;6.10;99.90
12887;DHT22;6511;49.746;6.094;2023-04-03T09:49:42;6.00;99.90
12887;DHT22;6511;49.746;6.094;2023-04-03T09:52:24;6.20;99.90
12887;DHT22;6511;49.746;6.094;2023-04-03T09:54:50;6.30;99.90
12887;DHT22;6511;49.746;6.094;2023-04-03T09:57:16;6.30;99.90
12887;DHT22;6511;49.746;6.094;2023-04-03T09:59:46;6.30;99.90
12887;DHT22;6511;49.746;6.094;2023-04-03T10:02:35;6.30;99.90
12887;DHT22;6511;49.746;6.094;2023-04-03T10:05:01;6.40;99.90
12887;DHT22;6511;49.746;6.094;2023-04-03T10:07:35;6.30;99.90
12887;DHT22;6511;49.746;6.094;2023-04-03T10:12:40;6.40;99.90
12887;DHT22;6511;49.746;6.094;2023-04-03T10:15:26;6.60;99.90
12887;DHT22;6511;49.746;6.094;2023-04-03T10:18:14;6.60;99.90
12887;DHT22;6511;49.746;6.094;2023-04-03T10:20:47;6.70;99.90
12887;DHT22;6511;49.746;6.094;2023-04-03T10:23:21;6.90;99.90
12887;DHT22;6511;49.746;6.094;2023-04-03T10:26:36;6.80;99.90
12887;DHT22;6511;49.746;6.094;2023-04-03T10:29:01;6.90;99.90
12887;DHT22;6511;49.746;6.094;2023-04-03T10:31:50;6.70;99.90
12887;DHT22;6511;49.746;6.094;2023-04-03T10:34:37;6.50;99.90
12887;DHT22;6511;49.746;6.094;2023-04-03T10:40:02;6.70;99.90
12887;DHT22;6511;49.746;6.094;2023-04-03T10:43:08;6.70;99.90
12887;DHT22;6511;49.746;6.094;2023-04-03T10:45:56;6.90;99.90
12887;DHT22;6511;49.746;6.094;2023-04-03T10:54:46;7.10;99.90
12887;DHT22;6511;49.746;6.094;2023-04-03T10:57:15;7.00;99.90
12887;DHT22;6511;49.746;6.094;2023-04-03T11:02:24;7.00;99.90
12887;DHT22;6511;49.746;6.094;2023-04-03T11:04:55;6.90;99.90
12887;DHT22;6511;49.746;6.094;2023-04-03T11:07:34;6.80;99.90
12887;DHT22;6511;49.746;6.094;2023-04-03T11:10:17;6.70;99.90
12887;DHT22;6511;49.746;6.094;2023-04-03T11:12:48;6.80;99.90
12887;DHT22;6511;49.746;6.094;2023-04-03T11:15:19;6.60;99.90
12887;DHT22;6511;49.746;6.094;2023-04-03T11:18:07;6.50;99.90
12887;DHT22;6511;49.746;6.094;2023-04-03T11:20:35;6.60;99.90
12887;DHT22;6511;49.746;6.094;2023-04-03T11:23:04;6.60;99.90
12887;DHT22;6511;49.746;6.094;2023-04-03T11:25:33;6.80;99.90
12887;DHT22;6511;49.746;6.094;2023-04-03T11:28:06;6.90;99.90
12887;DHT22;6511;49.746;6.094;2023-04-03T11:36:24;7.20;99.90
12887;DHT22;6511;49.746;6.094;2023-04-03T11:38:57;7.10;99.90
12887;DHT22;6511;49.746;6.094;2023-04-03T11:41:27;7.10;99.90
12887;DHT22;6511;49.746;6.094;2023-04-03T11:44:02;7.20;99.90
12887;DHT22;6511;49.746;6.094;2023-04-03T12:00:47;7.60;99.90
12887;DHT22;6511;49.746;6.094;2023-04-03T12:11:30;8.10;99.90
12887;DHT22;6511;49.746;6.094;2023-04-03T12:24:35;7.30;99.90
12887;DHT22;6511;49.746;6.094;2023-04-03T12:27:25;7.50;99.90
12887;DHT22;6511;49.746;6.094;2023-04-03T12:46:17;8.10;99.90
12887;DHT22;6511;49.746;6.094;2023-04-03T12:48:56;8.00;99.90
12887;DHT22;6511;49.746;6.094;2023-04-03T12:51:53;7.60;99.90
12887;DHT22;6511;49.746;6.094;2023-04-03T12:54:20;7.60;99.90
12887;DHT22;6511;49.746;6.094;2023-04-03T12:56:48;7.60;99.90
12887;DHT22;6511;49.746;6.094;2023-04-03T12:59:21;7.50;99.90
12887;DHT22;6511;49.746;6.094;2023-04-03T13:01:58;7.60;99.90
12887;DHT22;6511;49.746;6.094;2023-04-03T13:04:27;7.70;99.90
12887;DHT22;6511;49.746;6.094;2023-04-03T13:06:54;7.80;99.90
12887;DHT22;6511;49.746;6.094;2023-04-03T13:09:25;7.80;99.90
12887;DHT22;6511;49.746;6.094;2023-04-03T13:12:10;7.90;99.90
12887;DHT22;6511;49.746;6.094;2023-04-03T13:14:37;8.10;99.90
12887;DHT22;6511;49.746;6.094;2023-04-03T13:17:13;8.10;99.90
12887;DHT22;6511;49.746;6.094;2023-04-03T13:19:43;8.00;99.90
12887;DHT22;6511;49.746;6.094;2023-04-03T13:22:35;7.90;99.90
12887;DHT22;6511;49.746;6.094;2023-04-03T13:25:13;8.00;99.90
12887;DHT22;6511;49.746;6.094;2023-04-03T13:27:43;8.20;99.90
12887;DHT22;6511;49.746;6.094;2023-04-03T13:30:39;8.20;99.90
12887;DHT22;6511;49.746;6.094;2023-04-03T13:33:21;7.90;99.90
12887;DHT22;6511;49.746;6.094;2023-04-03T13:35:56;8.00;99.90
12887;DHT22;6511;49.746;6.094;2023-04-03T13:38:25;8.20;99.90
12887;DHT22;6511;49.746;6.094;2023-04-03T13:40:57;8.10;99.90
12887;DHT22;6511;49.746;6.094;2023-04-03T13:43:34;8.10;99.90
12887;DHT22;6511;49.746;6.094;2023-04-03T13:51:21;8.10;99.90
12887;DHT22;6511;49.746;6.094;2023-04-03T13:54:01;8.00;99.90
12887;DHT22;6511;49.746;6.094;2023-04-03T13:56:40;8.00;99.90
12887;DHT22;6511;49.746;6.094;2023-04-03T14:01:45;8.30;99.90
12887;DHT22;6511;49.746;6.094;2023-04-03T14:04:25;8.10;99.90
12887;DHT22;6511;49.746;6.094;2023-04-03T14:06:54;8.10;99.90
12887;DHT22;6511;49.746;6.094;2023-04-03T14:09:21;8.40;99.90
12887;DHT22;6511;49.746;6.094;2023-04-03T14:11:50;8.50;99.90
12887;DHT22;6511;49.746;6.094;2023-04-03T14:14:21;8.20;99.90
12887;DHT22;6511;49.746;6.094;2023-04-03T14:16:53;8.20;99.90
12887;DHT22;6511;49.746;6.094;2023-04-03T14:19:23;8.00;99.90
12887;DHT22;6511;49.746;6.094;2023-04-03T14:21:51;8.10;99.90
12887;DHT22;6511;49.746;6.094;2023-04-03T14:24:21;8.20;99.90
12887;DHT22;6511;49.746;6.094;2023-04-03T14:26:49;8.30;99.90
12887;DHT22;6511;49.746;6.094;2023-04-03T14:29:18;8.40;99.90
12887;DHT22;6511;49.746;6.094;2023-04-03T14:31:45;8.20;99.90
12887;DHT22;6511;49.746;6.094;2023-04-03T14:34:14;8.20;99.90
12887;DHT22;6511;49.746;6.094;2023-04-03T14:36:42;8.10;99.90
12887;DHT22;6511;49.746;6.094;2023-04-03T14:39:17;8.20;99.90
12887;DHT22;6511;49.746;6.094;2023-04-03T14:41:44;8.10;99.90
12887;DHT22;6511;49.746;6.094;2023-04-03T14:44:11;8.20;99.90
12887;DHT22;6511;49.746;6.094;2023-04-03T14:46:39;8.30;99.90
12887;DHT22;6511;49.746;6.094;2023-04-03T14:49:23;8.20;99.90
12887;DHT22;6511;49.746;6.094;2023-04-03T14:51:50;8.10;99.90
12887;DHT22;6511;49.746;6.094;2023-04-03T14:54:22;8.10;99.90
12887;DHT22;6511;49.746;6.094;2023-04-03T14:56:54;8.20;99.90
12887;DHT22;6511;49.746;6.094;2023-04-03T14:59:24;8.30;99.90
12887;DHT22;6511;49.746;6.094;2023-04-03T15:01:51;8.40;99.90
12887;DHT22;6511;49.746;6.094;2023-04-03T15:04:21;8.30;99.90
12887;DHT22;6511;49.746;6.094;2023-04-03T15:06:48;8.20;99.90
12887;DHT22;6511;49.746;6.094;2023-04-03T15:09:25;8.20;99.90
12887;DHT22;6511;49.746;6.094;2023-04-03T15:11:54;8.20;99.90
12887;DHT22;6511;49.746;6.094;2023-04-03T15:14:20;8.30;99.90
12887;DHT22;6511;49.746;6.094;2023-04-03T15:16:46;8.40;99.90
12887;DHT22;6511;49.746;6.094;2023-04-03T15:19:12;8.30;99.90
12887;DHT22;6511;49.746;6.094;2023-04-03T15:21:38;8.30;99.90
12887;DHT22;6511;49.746;6.094;2023-04-03T15:24:04;8.10;99.90
12887;DHT22;6511;49.746;6.094;2023-04-03T15:26:30;8.10;99.90
12887;DHT22;6511;49.746;6.094;2023-04-03T15:28:56;8.20;99.90
12887;DHT22;6511;49.746;6.094;2023-04-03T15:31:22;8.30;99.90
12887;DHT22;6511;49.746;6.094;2023-04-03T15:33:48;8.30;99.90
12887;DHT22;6511;49.746;6.094;2023-04-03T15:36:13;8.20;99.90
12887;DHT22;6511;49.746;6.094;2023-04-03T15:38:39;8.20;99.90
12887;DHT22;6511;49.746;6.094;2023-04-03T15:41:05;8.10;99.90
12887;DHT22;6511;49.746;6.094;2023-04-03T15:43:31;8.10;99.90
12887;DHT22;6511;49.746;6.094;2023-04-03T15:45:59;8.30;99.90
12887;DHT22;6511;49.746;6.094;2023-04-03T15:48:26;8.20;99.90
12887;DHT22;6511;49.746;6.094;2023-04-03T15:50:52;8.20;99.90
12887;DHT22;6511;49.746;6.094;2023-04-03T15:53:17;8.20;99.90
12887;DHT22;6511;49.746;6.094;2023-04-03T15:55:43;8.10;99.90
12887;DHT22;6511;49.746;6.094;2023-04-03T15:58:08;8.00;99.90
12887;DHT22;6511;49.746;6.094;2023-04-03T16:00:35;8.00;99.90
12887;DHT22;6511;49.746;6.094;2023-04-03T16:03:10;8.00;99.90
12887;DHT22;6511;49.746;6.094;2023-04-03T16:05:37;8.00;99.90
12887;DHT22;6511;49.746;6.094;2023-04-03T16:08:05;8.00;99.90
12887;DHT22;6511;49.746;6.094;2023-04-03T16:10:34;8.00;99.90
12887;DHT22;6511;49.746;6.094;2023-04-03T16:13:00;7.90;99.90
12887;DHT22;6511;49.746;6.094;2023-04-03T16:15:26;8.00;99.90
12887;DHT22;6511;49.746;6.094;2023-04-03T16:17:52;7.90;99.90
12887;DHT22;6511;49.746;6.094;2023-04-03T16:20:18;7.90;99.90
12887;DHT22;6511;49.746;6.094;2023-04-03T16:22:44;7.80;99.90
12887;DHT22;6511;49.746;6.094;2023-04-03T16:25:10;7.80;99.90
12887;DHT22;6511;49.746;6.094;2023-04-03T16:27:36;7.80;99.90
12887;DHT22;6511;49.746;6.094;2023-04-03T16:30:03;7.80;99.90
12887;DHT22;6511;49.746;6.094;2023-04-03T16:32:30;7.80;99.90
12887;DHT22;6511;49.746;6.094;2023-04-03T16:34:57;7.60;99.90
12887;DHT22;6511;49.746;6.094;2023-04-03T16:37:23;7.60;99.90
12887;DHT22;6511;49.746;6.094;2023-04-03T16:39:48;7.50;99.90
12887;DHT22;6511;49.746;6.094;2023-04-03T16:42:14;7.50;99.90
12887;DHT22;6511;49.746;6.094;2023-04-03T16:44:41;7.60;99.90
12887;DHT22;6511;49.746;6.094;2023-04-03T16:47:07;7.50;99.90
12887;DHT22;6511;49.746;6.094;2023-04-03T16:49:34;7.40;99.90
12887;DHT22;6511;49.746;6.094;2023-04-03T16:52:03;7.40;99.90
12887;DHT22;6511;49.746;6.094;2023-04-03T16:54:30;7.40;99.90
12887;DHT22;6511;49.746;6.094;2023-04-03T16:56:56;7.40;99.90
12887;DHT22;6511;49.746;6.094;2023-04-03T16:59:22;7.40;99.90
12887;DHT22;6511;49.746;6.094;2023-04-03T17:01:47;7.30;99.90
12887;DHT22;6511;49.746;6.094;2023-04-03T17:04:13;7.30;99.90
12887;DHT22;6511;49.746;6.094;2023-04-03T17:06:39;7.30;99.90
12887;DHT22;6511;49.746;6.094;2023-04-03T17:09:06;7.30;99.90
12887;DHT22;6511;49.746;6.094;2023-04-03T17:11:32;7.20;99.90
12887;DHT22;6511;49.746;6.094;2023-04-03T17:13:58;7.20;99.90
12887;DHT22;6511;49.746;6.094;2023-04-03T17:16:24;7.10;99.90
12887;DHT22;6511;49.746;6.094;2023-04-03T17:18:52;7.20;99.90
12887;DHT22;6511;49.746;6.094;2023-04-03T17:21:18;7.20;99.90
12887;DHT22;6511;49.746;6.094;2023-04-03T17:23:48;7.20;99.90
12887;DHT22;6511;49.746;6.094;2023-04-03T17:26:14;7.10;99.90
12887;DHT22;6511;49.746;6.094;2023-04-03T17:28:40;7.00;99.90
12887;DHT22;6511;49.746;6.094;2023-04-03T17:31:06;6.90;99.90
12887;DHT22;6511;49.746;6.094;2023-04-03T17:33:32;6.90;99.90
12887;DHT22;6511;49.746;6.094;2023-04-03T17:36:00;6.80;99.90
12887;DHT22;6511;49.746;6.094;2023-04-03T17:38:31;6.80;99.90
12887;DHT22;6511;49.746;6.094;2023-04-03T17:41:00;6.80;99.90
12887;DHT22;6511;49.746;6.094;2023-04-03T17:43:26;6.70;99.90
12887;DHT22;6511;49.746;6.094;2023-04-03T17:45:52;6.60;99.90
12887;DHT22;6511;49.746;6.094;2023-04-03T17:48:18;6.60;99.90
12887;DHT22;6511;49.746;6.094;2023-04-03T17:50:43;6.60;99.90
12887;DHT22;6511;49.746;6.094;2023-04-03T17:53:10;6.50;99.90